Time;durP1;ratioP1;P1;durP2;ratioP2;P2;SDS_P1;SDS_P2;PMS_P1;PMS_P2;Temp;Humidity;BMP_temperature;BMP_pressure;BME280_temperature;BME280_humidity;BME280_pressure;Samples;Min_cycle;Max_cycle;Signal;HPM_P1;HPM_P2
2023/09/06 00:00:51;;;;;;;13.38;8.93;;;;;;;12.95;72.35;101110.16;1774846;80;27531;-59
2023/09/06 00:03:19;;;;;;;15.18;9.58;;;;;;;12.93;72.21;101110.47;1774891;80;25600;-59
2023/09/06 00:05:47;;;;;;;13.70;9.23;;;;;;;12.92;72.45;101109.41;1774950;80;25431;-57
2023/09/06 00:08:17;;;;;;;14.25;9.85;;;;;;;12.89;72.76;101114.34;1774818;80;25726;-59
2023/09/06 00:10:46;;;;;;;17.80;10.18;;;;;;;12.89;72.54;101121.14;1774884;80;25557;-59
2023/09/06 00:13:18;;;;;;;16.80;10.75;;;;;;;12.88;72.73;101117.36;1774864;80;27637;-57
2023/09/06 00:15:45;;;;;;;18.32;9.38;;;;;;;12.87;72.61;101113.03;1774804;80;25572;-59
2023/09/06 00:18:11;;;;;;;18.20;9.58;;;;;;;12.85;72.60;101109.27;1774869;80;25436;-58
2023/09/06 00:20:39;;;;;;;13.40;8.80;;;;;;;12.84;72.51;101113.09;1780430;80;26099;-59
2023/09/06 00:23:09;;;;;;;14.45;9.53;;;;;;;12.84;72.64;101109.59;1782982;80;25570;-59
2023/09/06 00:25:37;;;;;;;17.27;9.55;;;;;;;12.83;72.98;101109.33;1782901;80;27496;-55
2023/09/06 00:28:08;;;;;;;14.98;9.63;;;;;;;12.81;73.16;101112.34;1782799;80;25421;-58
2023/09/06 00:30:37;;;;;;;15.20;10.35;;;;;;;12.81;73.09;101114.27;1782916;80;25647;-57
2023/09/06 00:33:08;;;;;;;16.10;10.53;;;;;;;12.79;73.41;101102.91;1783021;80;25484;-57
2023/09/06 00:35:39;;;;;;;13.72;10.90;;;;;;;12.78;73.67;101106.72;1782840;80;25410;-57
2023/09/06 00:38:06;;;;;;;16.45;10.53;;;;;;;12.75;73.76;101105.97;1782929;80;27518;-59
2023/09/06 00:40:37;;;;;;;22.80;11.97;;;;;;;12.74;73.45;101112.52;1782702;80;27473;-59
2023/09/06 00:43:10;;;;;;;13.10;10.00;;;;;;;12.71;73.95;101112.56;1782974;80;25389;-59
2023/09/06 00:45:50;;;;;;;13.03;9.63;;;;;;;12.68;73.80;101105.84;1782859;80;25591;-58
2023/09/06 00:48:26;;;;;;;15.03;9.35;;;;;;;12.66;73.49;101107.23;1782672;80;25550;-58
2023/09/06 00:50:58;;;;;;;16.35;10.88;;;;;;;12.64;73.72;101106.17;1782874;80;27811;-59
2023/09/06 00:53:28;;;;;;;19.62;11.08;;;;;;;12.60;73.40;101102.48;1782822;80;25611;-59
2023/09/06 00:55:58;;;;;;;18.87;11.50;;;;;;;12.57;73.51;101113.13;1782793;80;25458;-59
2023/09/06 00:58:28;;;;;;;18.42;10.85;;;;;;;12.56;74.21;101118.30;1782243;80;25873;-58
2023/09/06 01:00:54;;;;;;;17.23;11.45;;;;;;;12.54;74.08;101112.38;1782911;80;25364;-59
2023/09/06 01:03:20;;;;;;;16.15;11.30;;;;;;;12.53;74.36;101112.91;1782823;80;27527;-59
2023/09/06 01:06:05;;;;;;;18.35;11.80;;;;;;;12.52;74.34;101118.10;1782681;80;26057;-59
2023/09/06 01:08:46;;;;;;;17.77;11.38;;;;;;;12.50;74.34;101116.25;1782860;80;25540;-59
2023/09/06 01:11:22;;;;;;;17.35;11.03;;;;;;;12.47;74.55;101121.71;1782830;80;26214;-59
2023/09/06 01:13:54;;;;;;;15.03;10.32;;;;;;;12.45;75.09;101121.22;1782868;80;25373;-59
2023/09/06 01:16:45;;;;;;;16.60;10.45;;;;;;;12.44;74.87;101125.58;1782864;80;27541;-59
2023/09/06 01:19:18;;;;;;;19.98;11.65;;;;;;;12.42;75.23;101123.16;1782938;80;25502;-59
2023/09/06 01:21:59;;;;;;;17.92;11.30;;;;;;;12.42;74.71;101129.16;1775075;80;25591;-59
2023/09/06 01:24:29;;;;;;;17.07;11.90;;;;;;;12.40;75.05;101130.02;1771917;80;25486;-59
2023/09/06 01:26:57;;;;;;;13.95;11.05;;;;;;;12.39;75.28;101125.13;1774972;80;25617;-59
2023/09/06 01:29:34;;;;;;;15.88;11.55;;;;;;;12.37;75.23;101121.91;1775045;80;28185;-59
2023/09/06 01:32:01;;;;;;;18.10;11.97;;;;;;;12.39;75.41;101120.25;1774884;80;25607;-60
2023/09/06 01:34:27;;;;;;;17.02;12.00;;;;;;;12.38;75.49;101121.34;1775001;80;25909;-59
2023/09/06 01:36:53;;;;;;;16.57;11.40;;;;;;;12.36;75.38;101121.67;1774956;80;26043;-59
2023/09/06 01:39:19;;;;;;;18.30;12.53;;;;;;;12.33;75.46;101120.35;1774952;80;25522;-59
2023/09/06 01:41:45;;;;;;;16.32;12.53;;;;;;;12.32;75.72;101113.87;1775017;80;29755;-59
2023/09/06 01:44:11;;;;;;;16.27;11.30;;;;;;;12.31;75.90;101117.70;1774882;80;25393;-58
2023/09/06 01:46:38;;;;;;;14.93;10.58;;;;;;;12.30;75.58;101120.95;1774973;80;25376;-55
2023/09/06 01:49:04;;;;;;;14.80;10.72;;;;;;;12.29;75.68;101113.94;1774953;80;25601;-59
2023/09/06 01:51:32;;;;;;;18.62;11.30;;;;;;;12.29;75.40;101111.75;1774907;80;26930;-58
2023/09/06 01:54:01;;;;;;;19.52;11.50;;;;;;;12.27;75.66;101114.76;1774904;80;27406;-59
2023/09/06 01:56:26;;;;;;;20.27;12.05;;;;;;;12.25;75.57;101114.83;1773271;80;25550;-59
2023/09/06 01:58:53;;;;;;;16.20;11.73;;;;;;;12.24;75.68;101122.70;1774958;80;25413;-58
2023/09/06 02:01:21;;;;;;;19.27;11.73;;;;;;;12.20;75.31;101129.27;1774871;80;25553;-59
2023/09/06 02:03:48;;;;;;;18.27;11.12;;;;;;;12.18;75.31;101126.06;1774919;80;25362;-59
2023/09/06 02:06:15;;;;;;;19.92;11.00;;;;;;;12.15;75.43;101122.03;1775028;80;27441;-59
2023/09/06 02:08:41;;;;;;;15.18;11.20;;;;;;;12.13;75.48;101124.80;1774906;80;25435;-60
2023/09/06 02:11:07;;;;;;;17.17;11.93;;;;;;;12.10;75.52;101120.77;1774921;80;25644;-60
2023/09/06 02:13:33;;;;;;;14.95;11.45;;;;;;;12.08;75.54;101121.63;1774901;80;25592;-60
2023/09/06 02:16:04;;;;;;;14.95;11.53;;;;;;;12.05;75.89;101123.56;1774981;80;25544;-58
2023/09/06 02:18:31;;;;;;;18.27;10.95;;;;;;;12.04;76.09;101120.63;1775045;80;27464;-59
2023/09/06 02:20:58;;;;;;;16.15;11.18;;;;;;;12.00;76.18;101121.51;1774697;80;25391;-59
2023/09/06 02:23:26;;;;;;;16.80;11.78;;;;;;;11.96;75.83;101122.09;1774908;80;25506;-59
2023/09/06 02:25:52;;;;;;;17.02;12.33;;;;;;;11.94;76.03;101128.94;1774893;80;26049;-60
2023/09/06 02:28:18;;;;;;;16.62;12.07;;;;;;;11.91;75.75;101134.38;1774919;80;25523;-59
2023/09/06 02:30:44;;;;;;;19.87;13.58;;;;;;;11.87;76.19;101127.93;1774933;80;27444;-60
2023/09/06 02:33:13;;;;;;;18.23;12.30;;;;;;;11.84;76.09;101127.16;1774876;80;25398;-60
2023/09/06 02:35:44;;;;;;;20.15;12.93;;;;;;;11.82;76.27;101123.16;1775203;80;25436;-60
2023/09/06 02:38:13;;;;;;;17.12;12.33;;;;;;;11.80;76.34;101123.98;1774893;80;25684;-59
2023/09/06 02:40:41;;;;;;;17.23;12.30;;;;;;;11.77;76.44;101119.41;1775054;80;25448;-60
2023/09/06 02:43:13;;;;;;;16.93;11.73;;;;;;;11.76;76.42;101124.59;1775012;80;27489;-59
2023/09/06 02:45:49;;;;;;;19.70;12.80;;;;;;;11.75;76.77;101123.53;1774907;80;25452;-59
2023/09/06 02:48:13;;;;;;;16.67;12.28;;;;;;;11.73;76.47;101123.83;1773264;80;25369;-59
2023/09/06 02:50:40;;;;;;;17.98;13.00;;;;;;;11.71;76.80;101126.03;1774323;79;25620;-59
2023/09/06 02:53:19;;;;;;;17.98;11.45;;;;;;;11.70;76.84;101125.77;1775038;80;25609;-60
2023/09/06 02:55:36;;;;;;;19.52;11.90;;;;;;;11.68;76.63;101129.86;1772908;80;28266;-59
2023/09/06 02:58:05;;;;;;;19.70;12.88;;;;;;;11.65;76.39;101135.89;1746699;80;25536;-59
2023/09/06 03:00:40;;;;;;;16.25;11.90;;;;;;;11.61;76.26;101134.30;1774886;80;25535;-59
2023/09/06 03:03:07;;;;;;;17.52;12.70;;;;;;;11.56;76.35;101137.09;1774789;80;25579;-60
2023/09/06 03:05:42;;;;;;;20.05;13.28;;;;;;;11.54;76.38;101137.94;1774928;80;25615;-60
2023/09/06 03:08:13;;;;;;;18.73;12.65;;;;;;;11.50;76.34;101140.99;1774921;80;27378;-60
2023/09/06 03:10:46;;;;;;;18.87;12.15;;;;;;;11.45;76.37;101137.80;1774794;80;25556;-60
2023/09/06 03:13:15;;;;;;;16.45;11.93;;;;;;;11.42;76.66;101130.81;1775064;80;25499;-61
2023/09/06 03:15:43;;;;;;;18.52;12.80;;;;;;;11.41;76.86;101134.08;1775172;80;25591;-61
2023/09/06 03:18:10;;;;;;;18.07;12.85;;;;;;;11.39;77.20;101141.14;1775392;80;25364;-61
2023/09/06 03:20:45;;;;;;;15.88;12.30;;;;;;;11.39;77.40;101143.86;1777409;80;28242;-61
2023/09/06 03:23:18;;;;;;;18.67;12.43;;;;;;;11.36;77.31;101140.93;1782847;80;25966;-61
2023/09/06 03:25:50;;;;;;;17.10;12.37;;;;;;;11.35;77.27;101147.44;1782978;80;25496;-60
2023/09/06 03:28:18;;;;;;;17.00;12.07;;;;;;;11.33;77.17;101147.73;1782959;80;26243;-61
2023/09/06 03:30:50;;;;;;;16.17;11.50;;;;;;;11.31;77.41;101144.52;1782902;80;25601;-60
2023/09/06 03:33:18;;;;;;;16.82;13.03;;;;;;;11.30;77.64;101147.51;1782823;80;28142;-60
2023/09/06 03:35:46;;;;;;;17.80;12.75;;;;;;;11.28;77.71;101143.73;1782784;80;25681;-61
2023/09/06 03:38:15;;;;;;;17.15;12.40;;;;;;;11.28;77.52;101142.38;1783080;80;25479;-61
2023/09/06 03:40:45;;;;;;;19.50;11.83;;;;;;;11.25;77.46;101137.55;1782840;80;25869;-61
2023/09/06 03:43:15;;;;;;;20.80;12.30;;;;;;;11.23;77.21;101141.10;1782827;80;25361;-58
2023/09/06 03:45:55;;;;;;;15.23;12.47;;;;;;;11.20;77.66;101143.86;1782916;80;27455;-59
2023/09/06 03:48:25;;;;;;;19.90;12.98;;;;;;;11.18;77.68;101135.75;1782984;80;25550;-59
2023/09/06 03:50:59;;;;;;;14.87;11.35;;;;;;;11.18;78.08;101141.17;1782848;80;25613;-59
2023/09/06 03:53:29;;;;;;;15.75;11.55;;;;;;;11.15;77.71;101141.22;1782930;80;25538;-60
2023/09/06 03:56:00;;;;;;;17.70;12.68;;;;;;;11.15;77.87;101144.45;1782972;80;25608;-60
2023/09/06 03:58:27;;;;;;;20.70;12.78;;;;;;;11.12;77.72;101138.30;1782878;80;29600;-60
2023/09/06 04:00:55;;;;;;;17.52;12.43;;;;;;;11.10;77.88;101140.47;1782778;80;25541;-59
2023/09/06 04:03:26;;;;;;;15.48;11.70;;;;;;;11.09;78.02;101145.64;1782794;80;25547;-60
2023/09/06 04:05:51;;;;;;;19.57;12.70;;;;;;;11.07;77.83;101144.58;1782216;80;25575;-60
2023/09/06 04:08:20;;;;;;;18.32;12.63;;;;;;;11.05;77.84;101144.06;1782940;80;25503;-60
2023/09/06 04:10:49;;;;;;;18.65;13.10;;;;;;;11.05;77.95;101146.78;1782943;80;27477;-59
2023/09/06 04:13:16;;;;;;;17.85;12.65;;;;;;;11.05;78.21;101152.72;1782665;80;25920;-60
2023/09/06 04:15:45;;;;;;;18.30;12.15;;;;;;;11.04;78.43;101150.56;1782793;80;25593;-60
2023/09/06 04:18:14;;;;;;;16.52;12.25;;;;;;;11.04;78.24;101149.21;1782991;80;25452;-60
2023/09/06 04:20:48;;;;;;;18.82;12.45;;;;;;;11.03;78.26;101147.59;1782867;80;25830;-60
2023/09/06 04:23:16;;;;;;;18.55;13.13;;;;;;;11.03;78.64;101141.65;1782929;80;27465;-59
2023/09/06 04:25:45;;;;;;;19.17;12.93;;;;;;;11.04;78.86;101145.16;1782799;80;25598;-60
2023/09/06 04:28:16;;;;;;;18.27;13.13;;;;;;;11.06;78.99;101148.38;1782767;80;25425;-58
2023/09/06 04:30:47;;;;;;;15.78;12.10;;;;;;;11.08;79.02;101146.17;1782833;80;25454;-59
2023/09/06 04:33:15;;;;;;;16.07;12.15;;;;;;;11.09;79.09;101143.73;1782717;80;25599;-59
2023/09/06 04:35:47;;;;;;;22.37;13.10;;;;;;;11.10;79.31;101145.88;1783140;80;28010;-60
2023/09/06 04:38:24;;;;;;;15.43;11.60;;;;;;;11.10;79.25;101139.11;1782912;80;25372;-62
2023/09/06 04:40:51;;;;;;;17.05;11.70;;;;;;;11.11;79.39;101144.23;1782901;80;25525;-61
2023/09/06 04:43:22;;;;;;;14.68;11.12;;;;;;;11.13;79.49;101149.37;1782750;80;25582;-60
2023/09/06 04:45:50;;;;;;;16.70;11.97;;;;;;;11.14;79.42;101155.05;1782851;80;25589;-58
2023/09/06 04:48:23;;;;;;;15.18;12.50;;;;;;;11.14;79.45;101161.27;1782874;80;28490;-60
2023/09/06 04:50:50;;;;;;;18.42;12.82;;;;;;;11.17;79.64;101157.98;1782382;80;25397;-59
2023/09/06 04:53:19;;;;;;;17.50;13.28;;;;;;;11.20;79.80;101161.46;1783057;80;25364;-59
2023/09/06 04:55:49;;;;;;;19.12;12.88;;;;;;;11.23;79.98;101162.77;1783111;80;26426;-59
2023/09/06 04:58:20;;;;;;;15.88;12.50;;;;;;;11.28;80.31;101166.76;1783009;80;25625;-60
2023/09/06 05:00:51;;;;;;;17.15;12.80;;;;;;;11.33;80.38;101164.53;1782929;80;27503;-60
2023/09/06 05:03:18;;;;;;;20.00;13.18;;;;;;;11.37;80.50;101162.84;1783012;80;25446;-60
2023/09/06 05:05:51;;;;;;;19.23;14.13;;;;;;;11.40;80.47;101165.77;1782908;80;25586;-60
2023/09/06 05:08:17;;;;;;;18.23;13.03;;;;;;;11.46;80.59;101163.80;1783045;80;25611;-61
2023/09/06 05:10:43;;;;;;;23.10;14.83;;;;;;;11.51;80.76;101157.48;1783086;80;25368;-61
2023/09/06 05:13:11;;;;;;;21.17;15.55;;;;;;;11.55;80.87;101163.95;1783064;80;28043;-61
2023/09/06 05:15:39;;;;;;;19.02;15.38;;;;;;;11.63;81.77;101157.86;1782887;80;25424;-60
2023/09/06 05:18:08;;;;;;;26.48;17.12;;;;;;;11.73;82.63;101162.30;1782984;80;25551;-61
2023/09/06 05:20:41;;;;;;;25.02;16.77;;;;;;;11.85;83.45;101165.91;1782229;78;25594;-60
2023/09/06 05:23:16;;;;;;;22.48;16.37;;;;;;;11.98;83.44;101165.18;1752009;81;25568;-60
2023/09/06 05:25:44;;;;;;;25.95;17.57;;;;;;;12.11;83.82;101169.84;1752018;81;27573;-61
2023/09/06 05:28:15;;;;;;;23.12;16.93;;;;;;;12.23;83.94;101166.66;1751828;81;25802;-61
2023/09/06 05:30:47;;;;;;;22.85;17.37;;;;;;;12.36;84.34;101166.44;1752147;81;25486;-60
2023/09/06 05:33:14;;;;;;;21.57;17.85;;;;;;;12.49;84.42;101168.90;1751988;81;27708;-60
2023/09/06 05:35:44;;;;;;;23.35;18.15;;;;;;;12.63;84.75;101175.69;1752193;81;25601;-60
2023/09/06 05:38:10;;;;;;;18.80;15.90;;;;;;;12.86;84.90;101187.47;1751967;81;27476;-61
2023/09/06 05:40:43;;;;;;;21.62;16.90;;;;;;;12.92;85.21;101176.73;1751881;81;25347;-61
2023/09/06 05:43:11;;;;;;;21.00;16.52;;;;;;;13.07;85.49;101176.41;1750970;81;25696;-64
2023/09/06 05:45:37;;;;;;;21.07;16.12;;;;;;;13.23;85.59;101170.11;1735635;81;26219;-64
2023/09/06 05:48:07;;;;;;;23.38;16.95;;;;;;;13.41;85.40;101173.02;1750873;81;25944;-64
2023/09/06 05:50:34;;;;;;;27.02;18.17;;;;;;;13.58;85.64;101175.07;1750895;81;27506;-64
2023/09/06 05:53:01;;;;;;;26.97;16.90;;;;;;;13.74;85.54;101174.97;1750864;81;25861;-64
2023/09/06 05:55:28;;;;;;;21.82;15.65;;;;;;;13.93;85.46;101172.63;1750923;80;25728;-64
2023/09/06 05:57:55;;;;;;;21.37;16.55;;;;;;;14.12;85.71;101171.84;1751448;81;25665;-64
2023/09/06 06:00:22;;;;;;;19.48;15.40;;;;;;;14.32;85.45;101171.05;1752118;81;25381;-64
2023/09/06 06:02:50;;;;;;;18.50;14.15;;;;;;;14.51;85.09;101167.55;1752091;81;27500;-64
2023/09/06 06:05:18;;;;;;;19.52;14.40;;;;;;;14.75;85.05;101171.84;1752013;81;25803;-65
2023/09/06 06:07:46;;;;;;;20.02;15.05;;;;;;;14.97;85.15;101175.59;1752013;81;25543;-65
2023/09/06 06:10:13;;;;;;;17.92;13.38;;;;;;;15.19;84.89;101176.00;1752019;81;25465;-66
2023/09/06 06:12:41;;;;;;;16.50;12.47;;;;;;;15.40;84.36;101174.84;1752026;81;25462;-65
2023/09/06 06:15:13;;;;;;;16.15;13.25;;;;;;;15.62;82.99;101184.79;1752025;81;28061;-65
2023/09/06 06:17:40;;;;;;;20.40;13.35;;;;;;;15.86;83.32;101185.11;1751937;81;25509;-63
2023/09/06 06:20:13;;;;;;;20.08;13.05;;;;;;;16.10;82.72;101186.52;1752013;81;25452;-65
2023/09/06 06:22:40;;;;;;;19.32;12.80;;;;;;;16.34;82.23;101182.45;1768998;80;25578;-64
2023/09/06 06:25:10;;;;;;;18.52;12.28;;;;;;;16.61;82.27;101189.41;1775071;80;25427;-64
2023/09/06 06:27:38;;;;;;;16.42;11.97;;;;;;;16.88;81.31;101190.13;1774585;80;28182;-64
2023/09/06 06:30:06;;;;;;;15.55;12.07;;;;;;;17.16;81.39;101193.16;1774931;80;25421;-61
2023/09/06 06:32:34;;;;;;;17.48;13.45;;;;;;;17.48;81.32;101192.21;1775203;80;25596;-62
2023/09/06 06:35:05;;;;;;;18.30;12.63;;;;;;;17.82;80.63;101185.64;1774990;80;25671;-63
2023/09/06 06:37:29;;;;;;;14.63;11.25;;;;;;;18.14;79.80;101193.42;1774886;80;25378;-67
2023/09/06 06:39:58;;;;;;;16.40;10.85;;;;;;;18.46;78.95;101184.92;1775137;80;27350;-67
2023/09/06 06:42:27;;;;;;;15.15;10.25;;;;;;;18.81;78.58;101184.47;1775034;80;25393;-71
2023/09/06 06:44:53;;;;;;;16.25;10.13;;;;;;;19.17;77.28;101191.90;1775159;80;25558;-67
2023/09/06 06:47:19;;;;;;;13.13;9.50;;;;;;;19.54;76.33;101192.36;1774651;80;25660;-66
2023/09/06 06:49:46;;;;;;;15.58;9.33;;;;;;;19.88;75.48;101195.11;1773766;80;25623;-66
2023/09/06 06:52:12;;;;;;;13.00;9.33;;;;;;;20.24;74.89;101194.68;1773912;80;29602;-67
2023/09/06 06:54:43;;;;;;;14.15;9.25;;;;;;;20.57;73.48;101192.74;1773983;80;25654;-67
2023/09/06 06:57:13;;;;;;;12.37;8.85;;;;;;;20.93;72.79;101197.77;1774145;80;25668;-70
2023/09/06 06:59:41;;;;;;;12.30;8.60;;;;;;;21.29;71.18;101202.10;1684530;85;25961;-69
2023/09/06 07:02:07;;;;;;;10.55;7.67;;;;;;;21.64;69.63;101199.33;1684729;85;25706;-69
2023/09/06 07:04:33;;;;;;;12.75;7.55;;;;;;;21.91;68.12;101203.57;1685679;85;27574;-70
2023/09/06 07:06:59;;;;;;;13.88;7.17;;;;;;;22.14;66.60;101198.69;1685747;85;25530;-70
2023/09/06 07:09:26;;;;;;;15.78;8.15;;;;;;;22.44;66.18;101191.97;1685506;85;25475;-70
2023/09/06 07:11:52;;;;;;;10.93;7.37;;;;;;;22.82;65.61;101203.20;1685365;85;25475;-69
2023/09/06 07:14:18;;;;;;;14.25;7.83;;;;;;;23.16;64.95;101198.59;1685414;85;25444;-69
2023/09/06 07:16:45;;;;;;;12.23;6.50;;;;;;;23.52;63.35;101194.91;1685416;85;27489;-66
2023/09/06 07:19:11;;;;;;;8.63;7.00;;;;;;;23.85;62.20;101201.05;1685351;85;25520;-66
2023/09/06 07:21:38;;;;;;;11.90;9.00;;;;;;;24.14;61.38;101201.92;1685310;84;25610;-67
2023/09/06 07:24:05;;;;;;;8.83;7.00;;;;;;;24.42;60.23;101202.19;1685383;85;25577;-66
2023/09/06 07:26:31;;;;;;;10.40;6.90;;;;;;;24.73;59.29;101205.61;1685443;85;25431;-67
2023/09/06 07:28:57;;;;;;;12.45;7.10;;;;;;;25.05;58.18;101205.03;1685396;85;27493;-65
2023/09/06 07:31:23;;;;;;;10.05;6.83;;;;;;;25.40;57.36;101207.02;1685346;85;25621;-65
2023/09/06 07:33:50;;;;;;;9.58;6.33;;;;;;;25.70;56.48;101206.74;1685417;85;25619;-64
2023/09/06 07:36:18;;;;;;;7.62;6.03;;;;;;;25.96;55.43;101212.57;1697369;80;26055;-65
2023/09/06 07:38:45;;;;;;;7.97;5.85;;;;;;;26.27;54.58;101211.05;1775110;80;25453;-65
2023/09/06 07:41:12;;;;;;;12.70;6.47;;;;;;;26.60;53.74;101213.83;1775016;80;26977;-65
2023/09/06 07:43:39;;;;;;;13.83;5.85;;;;;;;26.86;52.48;101217.41;1774911;80;25550;-68
2023/09/06 07:46:10;;;;;;;9.30;5.97;;;;;;;27.02;51.25;101210.81;1775122;80;25536;-66
2023/09/06 07:48:38;;;;;;;9.48;6.42;;;;;;;27.23;50.40;101207.80;1776278;80;25489;-66
2023/09/06 07:51:06;;;;;;;9.60;6.40;;;;;;;27.43;49.41;101211.73;1776757;80;25450;-66
2023/09/06 07:53:33;;;;;;;7.10;5.58;;;;;;;27.64;48.20;101211.44;1776612;80;27465;-66
2023/09/06 07:56:01;;;;;;;9.43;5.95;;;;;;;27.85;47.87;101214.08;1776187;80;25381;-68
2023/09/06 11:52:16;;;;;;;8.33;5.05;;;;;;;37.71;24.26;101150.85;1887161;76;25503;-64
2023/09/06 11:54:44;;;;;;;18.62;7.65;;;;;;;37.63;24.45;101153.87;1858191;77;25533;-65
2023/09/06 11:57:26;;;;;;;5.80;4.60;;;;;;;37.55;24.98;101150.59;1858075;77;27502;-64
2023/09/06 11:59:58;;;;;;;5.87;3.85;;;;;;;37.29;24.78;101148.84;1857574;77;25419;-64
2023/09/06 12:02:34;;;;;;;4.90;4.20;;;;;;;37.04;24.69;101147.79;1788177;80;25381;-63
2023/09/06 12:05:03;;;;;;;8.38;3.72;;;;;;;36.89;24.78;101145.61;1819304;78;25820;-65
2023/09/06 12:07:31;;;;;;;6.00;3.20;;;;;;;36.85;24.94;101146.41;1788093;80;25458;-65
2023/09/06 12:10:04;;;;;;;5.40;3.60;;;;;;;36.77;24.96;101142.35;1788085;80;27515;-64
2023/09/06 12:12:40;;;;;;;4.67;2.98;;;;;;;36.61;25.15;101139.22;1787742;80;25478;-62
2023/09/06 12:15:19;;;;;;;5.23;3.30;;;;;;;36.61;25.20;101139.22;1788466;80;25399;-64
2023/09/06 12:17:50;;;;;;;7.20;3.47;;;;;;;36.63;24.89;101137.48;1788178;80;25270;-64
2023/09/06 12:20:23;;;;;;;5.97;3.67;;;;;;;36.84;24.80;101140.61;1788842;80;25540;-65
2023/09/06 12:22:53;;;;;;;5.28;3.40;;;;;;;36.97;24.80;101137.63;1788574;80;27582;-65
2023/09/06 12:25:20;;;;;;;3.27;2.95;;;;;;;37.09;24.87;101141.51;1788017;80;25764;-65
2023/09/06 12:27:48;;;;;;;6.35;3.02;;;;;;;37.11;24.69;101134.12;1789297;77;25555;-65
2023/09/06 12:30:22;;;;;;;4.90;3.90;;;;;;;37.19;24.58;101135.39;1787009;80;25709;-65
2023/09/06 12:32:46;;;;;;;7.22;3.62;;;;;;;37.28;24.09;101138.03;1785927;80;25743;-65
2023/09/06 12:35:13;;;;;;;5.35;3.30;;;;;;;36.93;24.06;101130.74;1788123;80;28128;-64
2023/09/06 12:37:40;;;;;;;4.17;2.95;;;;;;;36.60;23.70;101129.19;1788014;80;25610;-65
2023/09/06 12:40:14;;;;;;;6.83;3.30;;;;;;;36.22;24.04;101134.05;1788451;80;25575;-65
2023/09/06 12:42:43;;;;;;;7.25;3.92;;;;;;;36.05;24.83;101133.52;1788103;80;25460;-65
2023/09/06 12:45:28;;;;;;;5.60;3.62;;;;;;;35.96;24.89;101134.12;1788149;80;25600;-66
2023/09/06 12:47:56;;;;;;;5.50;3.40;;;;;;;35.89;25.37;101125.36;1788106;80;27508;-66
2023/09/06 12:50:24;;;;;;;;;;;;;;;36.01;25.03;101123.05;1791263;80;26036;-65
2023/09/06 12:52:51;;;;;;;4.60;3.20;;;;;;;36.02;25.17;101121.78;1775991;80;25430;-65
2023/09/06 12:55:18;;;;;;;4.20;3.42;;;;;;;35.89;24.96;101118.32;1794048;80;25598;-66
2023/09/06 12:57:46;;;;;;;7.17;3.55;;;;;;;35.80;24.73;101119.09;1793998;80;25161;-65
2023/09/06 13:00:14;;;;;;;14.38;5.15;;;;;;;35.82;24.85;101112.99;1794218;80;27444;-65
2023/09/06 13:02:41;;;;;;;4.05;3.47;;;;;;;35.75;24.78;101111.25;1793659;80;25480;-62
2023/09/06 13:05:09;;;;;;;107.70;98.03;;;;;;;35.67;24.84;101106.53;1793634;80;25506;-64
2023/09/06 13:07:37;;;;;;;5.53;4.92;;;;;;;35.70;25.28;101111.20;1825987;78;25458;-67
2023/09/06 13:10:05;;;;;;;7.83;4.90;;;;;;;35.65;25.12;101102.61;1793677;80;25609;-64
2023/09/06 13:12:33;;;;;;;6.17;4.17;;;;;;;35.59;25.34;101100.23;1826003;78;27547;-62
2023/09/06 13:15:00;;;;;;;7.00;4.22;;;;;;;35.64;25.33;101097.61;1793600;80;25729;-65
2023/09/06 13:17:27;;;;;;;8.43;5.40;;;;;;;35.50;25.45;101098.17;1826020;78;25533;-62
2023/09/06 13:19:54;;;;;;;6.22;4.22;;;;;;;35.47;26.18;101106.94;1793400;80;25626;-64
2023/09/06 13:22:20;;;;;;;5.20;4.30;;;;;;;35.25;26.45;101103.41;1826216;78;25410;-62
2023/09/06 13:24:46;;;;;;;8.08;4.37;;;;;;;35.31;26.47;101102.32;1793338;80;27424;-62
2023/09/06 13:27:13;;;;;;;6.45;3.67;;;;;;;35.34;26.61;101100.00;1825817;78;25715;-65
2023/09/06 13:29:39;;;;;;;5.42;3.65;;;;;;;35.17;26.69;101102.23;1793594;80;25388;-64
2023/09/06 13:32:08;;;;;;;6.87;3.67;;;;;;;35.12;26.61;101097.21;1826120;78;25596;-63
2023/09/06 13:34:36;;;;;;;6.12;4.20;;;;;;;35.07;26.76;101096.41;1793325;80;25608;-60
2023/09/06 13:37:04;;;;;;;11.20;3.87;;;;;;;35.08;26.76;101100.80;1796139;78;27448;-66
2023/09/06 13:39:32;;;;;;;4.28;3.20;;;;;;;35.07;26.38;101096.41;1793392;80;25468;-62
2023/09/06 13:42:00;;;;;;;5.12;3.33;;;;;;;35.21;26.63;101091.48;1825990;78;25534;-61
2023/09/06 13:44:37;;;;;;;5.55;3.30;;;;;;;35.27;26.38;101098.88;1793489;80;25383;-62
2023/09/06 13:47:01;;;;;;;5.55;2.90;;;;;;;35.25;26.00;101090.13;1823966;78;25407;-63
2023/09/06 13:49:28;;;;;;;5.45;3.37;;;;;;;35.19;26.51;101096.16;1793348;80;26992;-62
2023/09/06 13:51:54;;;;;;;5.20;3.52;;;;;;;35.11;26.68;101089.23;1815487;78;25488;-63
2023/09/06 13:54:21;;;;;;;10.63;5.28;;;;;;;34.97;27.49;101087.77;1809786;79;25377;-59
2023/09/06 13:56:50;;;;;;;5.60;3.45;;;;;;;34.78;27.36;101093.27;1738284;82;25452;-60
2023/09/06 13:59:17;;;;;;;7.30;4.60;;;;;;;34.82;27.11;101087.55;1768600;81;25625;-61
2023/09/06 14:01:44;;;;;;;6.35;4.95;;;;;;;34.81;27.05;101087.38;1738258;81;27590;-61
2023/09/06 14:04:10;;;;;;;8.08;4.50;;;;;;;34.82;27.19;101088.95;1768451;81;25605;-62
2023/09/06 14:06:39;;;;;;;8.03;4.10;;;;;;;34.84;27.11;101091.27;1768506;81;25566;-61
2023/09/06 14:09:10;;;;;;;5.55;4.33;;;;;;;34.72;27.04;101088.70;1738209;82;26173;-61
2023/09/06 14:11:38;;;;;;;5.67;3.95;;;;;;;34.75;27.07;101079.36;1768502;81;25393;-61
2023/09/06 14:14:05;;;;;;;4.45;3.70;;;;;;;34.73;27.10;101079.81;1738326;82;28207;-62
2023/09/06 14:16:33;;;;;;;3.87;2.80;;;;;;;34.73;27.46;101079.05;1768433;81;25447;-62
2023/09/06 14:19:01;;;;;;;5.47;2.95;;;;;;;34.75;27.34;101084.98;1738237;82;25467;-63
2023/09/06 14:21:29;;;;;;;4.03;2.80;;;;;;;34.69;27.53;101079.16;1767528;81;26225;-62
2023/09/06 14:23:55;;;;;;;3.40;2.90;;;;;;;34.61;27.35;101075.03;1768515;81;25642;-63
2023/09/06 14:26:22;;;;;;;5.17;2.80;;;;;;;34.55;27.42;101081.09;1738315;81;29741;-62
2023/09/06 14:44:19;;;;;;;6.87;4.17;;;;;;;33.77;28.00;101065.10;1772178;78;27147;-62
2023/09/06 14:46:47;;;;;;;3.33;2.92;;;;;;;33.59;28.29;101073.29;1762720;80;25729;-61
2023/09/06 14:49:14;;;;;;;4.72;3.02;;;;;;;33.42;28.12;101065.62;1762817;81;25549;-62
2023/09/06 14:51:40;;;;;;;8.23;3.55;;;;;;;33.35;28.25;101060.25;1800822;78;27544;-63
2023/09/06 14:54:07;;;;;;;3.92;3.42;;;;;;;33.31;28.35;101063.16;1800824;79;25619;-62
2023/09/06 14:56:34;;;;;;;4.22;3.17;;;;;;;33.19;28.51;101062.55;1800871;79;25505;-63
2023/09/06 14:59:01;;;;;;;3.00;2.70;;;;;;;33.01;28.68;101065.23;1801030;79;25386;-63
2023/09/06 15:01:27;;;;;;;3.05;2.75;;;;;;;32.83;28.57;101062.98;1800932;79;25575;-62
2023/09/06 15:03:54;;;;;;;4.70;2.45;;;;;;;32.71;28.51;101060.91;1800889;79;27499;-64
2023/09/06 15:06:20;;;;;;;4.85;2.77;;;;;;;32.60;28.61;101056.23;1800758;79;25393;-61
2023/09/06 15:08:46;;;;;;;4.90;2.92;;;;;;;32.47;28.83;101063.98;1800801;79;25452;-62
2023/09/06 15:11:12;;;;;;;4.37;2.65;;;;;;;32.37;29.10;101060.23;1800778;79;25584;-62
2023/09/06 15:13:38;;;;;;;4.22;3.10;;;;;;;32.25;29.50;101058.18;1800829;78;25375;-62
2023/09/06 15:16:04;;;;;;;3.92;2.75;;;;;;;32.12;29.54;101056.71;1800783;79;27501;-60
2023/09/06 15:18:31;;;;;;;3.58;3.12;;;;;;;31.98;29.59;101054.27;1800736;79;25608;-60
2023/09/06 15:20:57;;;;;;;5.60;2.92;;;;;;;31.87;29.77;101062.91;1800824;79;25584;-61
2023/09/06 15:23:25;;;;;;;6.10;3.47;;;;;;;31.75;30.02;101052.45;1800779;79;25596;-61
2023/09/06 15:25:52;;;;;;;5.12;3.87;;;;;;;31.62;29.90;101050.98;1800997;79;25616;-60
2023/09/06 15:28:18;;;;;;;4.10;3.12;;;;;;;31.46;30.17;101046.89;1800796;79;29700;-62
2023/09/06 15:30:45;;;;;;;6.92;3.22;;;;;;;31.32;30.17;101054.23;1800743;79;25581;-60